sensor_id;sensor_type;location;lat;lon;timestamp;pressure;altitude;pressure_sealevel;temperature
45850;BMP180;10739;52.198;20.908;2022-09-24T00:01:35;100448.00;;;11.10
45850;BMP180;10739;52.198;20.908;2022-09-24T00:04:06;100451.00;;;10.60
45850;BMP180;10739;52.198;20.908;2022-09-24T00:06:37;100449.00;;;10.80
45850;BMP180;10739;52.198;20.908;2022-09-24T00:09:05;100444.00;;;11.20
45850;BMP180;10739;52.198;20.908;2022-09-24T00:11:32;100443.00;;;11.00
45850;BMP180;10739;52.198;20.908;2022-09-24T00:13:59;100438.00;;;10.90
45850;BMP180;10739;52.198;20.908;2022-09-24T00:16:28;100436.00;;;11.00
45850;BMP180;10739;52.198;20.908;2022-09-24T00:18:58;100448.00;;;11.20
45850;BMP180;10739;52.198;20.908;2022-09-24T00:21:29;100440.00;;;11.40
45850;BMP180;10739;52.198;20.908;2022-09-24T00:24:00;100434.00;;;11.40
45850;BMP180;10739;52.198;20.908;2022-09-24T00:26:27;100436.00;;;11.50
45850;BMP180;10739;52.198;20.908;2022-09-24T00:29:16;100442.00;;;11.50
45850;BMP180;10739;52.198;20.908;2022-09-24T00:31:42;100426.00;;;11.50
45850;BMP180;10739;52.198;20.908;2022-09-24T00:34:08;100431.00;;;11.10
45850;BMP180;10739;52.198;20.908;2022-09-24T00:36:35;100416.00;;;10.90
45850;BMP180;10739;52.198;20.908;2022-09-24T00:39:03;100435.00;;;11.00
45850;BMP180;10739;52.198;20.908;2022-09-24T00:41:34;100432.00;;;11.20
45850;BMP180;10739;52.198;20.908;2022-09-24T00:44:51;100438.00;;;11.60
45850;BMP180;10739;52.198;20.908;2022-09-24T00:47:39;100434.00;;;11.70
45850;BMP180;10739;52.198;20.908;2022-09-24T00:52:43;100423.00;;;11.60
45850;BMP180;10739;52.198;20.908;2022-09-24T00:55:13;100428.00;;;11.60
45850;BMP180;10739;52.198;20.908;2022-09-24T00:57:48;100420.00;;;11.30
45850;BMP180;10739;52.198;20.908;2022-09-24T01:00:17;100421.00;;;11.10
45850;BMP180;10739;52.198;20.908;2022-09-24T01:02:48;100416.00;;;11.40
45850;BMP180;10739;52.198;20.908;2022-09-24T01:05:15;100427.00;;;11.50
45850;BMP180;10739;52.198;20.908;2022-09-24T01:07:42;100420.00;;;11.50
45850;BMP180;10739;52.198;20.908;2022-09-24T01:10:09;100408.00;;;11.60
45850;BMP180;10739;52.198;20.908;2022-09-24T01:12:56;100412.00;;;11.50
45850;BMP180;10739;52.198;20.908;2022-09-24T01:15:39;100419.00;;;11.50
45850;BMP180;10739;52.198;20.908;2022-09-24T01:18:57;100417.00;;;11.50
45850;BMP180;10739;52.198;20.908;2022-09-24T01:27:21;100413.00;;;11.60
45850;BMP180;10739;52.198;20.908;2022-09-24T01:30:10;100401.00;;;11.60
45850;BMP180;10739;52.198;20.908;2022-09-24T01:32:52;100402.00;;;11.70
45850;BMP180;10739;52.198;20.908;2022-09-24T01:35:32;100411.00;;;11.50
45850;BMP180;10739;52.198;20.908;2022-09-24T01:38:17;100411.00;;;11.60
45850;BMP180;10739;52.198;20.908;2022-09-24T01:40:45;100407.00;;;11.50
45850;BMP180;10739;52.198;20.908;2022-09-24T01:43:16;100396.00;;;11.40
45850;BMP180;10739;52.198;20.908;2022-09-24T01:45:42;100396.00;;;11.00
45850;BMP180;10739;52.198;20.908;2022-09-24T01:48:09;100396.00;;;11.00
45850;BMP180;10739;52.198;20.908;2022-09-24T01:50:56;100407.00;;;10.80
45850;BMP180;10739;52.198;20.908;2022-09-24T01:53:40;100410.00;;;10.20
45850;BMP180;10739;52.198;20.908;2022-09-24T01:56:15;100407.00;;;10.10
45850;BMP180;10739;52.198;20.908;2022-09-24T01:58:52;100390.00;;;10.40
45850;BMP180;10739;52.198;20.908;2022-09-24T02:01:44;100407.00;;;10.60
45850;BMP180;10739;52.198;20.908;2022-09-24T02:04:17;100406.00;;;10.20
45850;BMP180;10739;52.198;20.908;2022-09-24T02:07:03;100406.00;;;10.00
45850;BMP180;10739;52.198;20.908;2022-09-24T02:09:40;100405.00;;;10.30
45850;BMP180;10739;52.198;20.908;2022-09-24T02:12:11;100397.00;;;10.10
45850;BMP180;10739;52.198;20.908;2022-09-24T02:14:51;100393.00;;;9.90
45850;BMP180;10739;52.198;20.908;2022-09-24T02:17:23;100397.00;;;9.80
45850;BMP180;10739;52.198;20.908;2022-09-24T02:19:53;100394.00;;;9.40
45850;BMP180;10739;52.198;20.908;2022-09-24T02:22:24;100399.00;;;9.70
45850;BMP180;10739;52.198;20.908;2022-09-24T02:24:59;100402.00;;;9.70
45850;BMP180;10739;52.198;20.908;2022-09-24T02:27:27;100396.00;;;10.00
45850;BMP180;10739;52.198;20.908;2022-09-24T02:29:56;100389.00;;;10.10
45850;BMP180;10739;52.198;20.908;2022-09-24T02:32:29;100387.00;;;10.50
45850;BMP180;10739;52.198;20.908;2022-09-24T02:35:01;100389.00;;;10.60
45850;BMP180;10739;52.198;20.908;2022-09-24T02:37:36;100388.00;;;10.30
45850;BMP180;10739;52.198;20.908;2022-09-24T02:40:07;100394.00;;;10.40
45850;BMP180;10739;52.198;20.908;2022-09-24T02:42:33;100386.00;;;10.50
45850;BMP180;10739;52.198;20.908;2022-09-24T02:45:00;100390.00;;;10.80
45850;BMP180;10739;52.198;20.908;2022-09-24T02:47:27;100389.00;;;10.90
45850;BMP180;10739;52.198;20.908;2022-09-24T02:49:53;100388.00;;;11.00
45850;BMP180;10739;52.198;20.908;2022-09-24T02:52:22;100380.00;;;10.90
45850;BMP180;10739;52.198;20.908;2022-09-24T02:54:49;100382.00;;;10.90
45850;BMP180;10739;52.198;20.908;2022-09-24T02:57:19;100391.00;;;10.90
45850;BMP180;10739;52.198;20.908;2022-09-24T02:59:46;100382.00;;;10.80
45850;BMP180;10739;52.198;20.908;2022-09-24T03:02:12;100384.00;;;10.80
45850;BMP180;10739;52.198;20.908;2022-09-24T03:04:39;100381.00;;;10.80
45850;BMP180;10739;52.198;20.908;2022-09-24T03:07:06;100384.00;;;10.60
45850;BMP180;10739;52.198;20.908;2022-09-24T03:09:32;100376.00;;;10.50
45850;BMP180;10739;52.198;20.908;2022-09-24T03:11:58;100376.00;;;10.50
45850;BMP180;10739;52.198;20.908;2022-09-24T03:14:26;100379.00;;;10.50
45850;BMP180;10739;52.198;20.908;2022-09-24T03:16:52;100371.00;;;10.50
45850;BMP180;10739;52.198;20.908;2022-09-24T03:19:18;100368.00;;;10.50
45850;BMP180;10739;52.198;20.908;2022-09-24T03:21:45;100368.00;;;10.50
45850;BMP180;10739;52.198;20.908;2022-09-24T03:24:11;100373.00;;;10.40
45850;BMP180;10739;52.198;20.908;2022-09-24T03:26:37;100365.00;;;10.40
45850;BMP180;10739;52.198;20.908;2022-09-24T03:29:03;100366.00;;;10.50
45850;BMP180;10739;52.198;20.908;2022-09-24T03:31:29;100365.00;;;10.40
45850;BMP180;10739;52.198;20.908;2022-09-24T03:33:56;100364.00;;;10.40
45850;BMP180;10739;52.198;20.908;2022-09-24T03:36:24;100366.00;;;10.30
45850;BMP180;10739;52.198;20.908;2022-09-24T03:38:54;100369.00;;;10.20
45850;BMP180;10739;52.198;20.908;2022-09-24T03:41:22;100359.00;;;10.30
45850;BMP180;10739;52.198;20.908;2022-09-24T03:43:49;100369.00;;;10.30
45850;BMP180;10739;52.198;20.908;2022-09-24T03:46:15;100372.00;;;10.10
45850;BMP180;10739;52.198;20.908;2022-09-24T03:48:42;100374.00;;;9.80
45850;BMP180;10739;52.198;20.908;2022-09-24T03:51:17;100377.00;;;9.50
45850;BMP180;10739;52.198;20.908;2022-09-24T03:53:45;100367.00;;;9.60
45850;BMP180;10739;52.198;20.908;2022-09-24T03:56:13;100375.00;;;9.70
45850;BMP180;10739;52.198;20.908;2022-09-24T03:58:40;100369.00;;;9.80
45850;BMP180;10739;52.198;20.908;2022-09-24T04:01:09;100377.00;;;9.60
45850;BMP180;10739;52.198;20.908;2022-09-24T04:03:39;100370.00;;;9.80
45850;BMP180;10739;52.198;20.908;2022-09-24T04:06:06;100374.00;;;9.70
45850;BMP180;10739;52.198;20.908;2022-09-24T04:08:32;100375.00;;;9.80
45850;BMP180;10739;52.198;20.908;2022-09-24T04:10:58;100379.00;;;9.90
45850;BMP180;10739;52.198;20.908;2022-09-24T04:13:24;100374.00;;;9.60
45850;BMP180;10739;52.198;20.908;2022-09-24T04:15:51;100386.00;;;9.10
45850;BMP180;10739;52.198;20.908;2022-09-24T04:18:18;100385.00;;;9.20
45850;BMP180;10739;52.198;20.908;2022-09-24T04:20:44;100391.00;;;9.30
45850;BMP180;10739;52.198;20.908;2022-09-24T04:23:12;100380.00;;;9.50
45850;BMP180;10739;52.198;20.908;2022-09-24T04:25:38;100375.00;;;9.20
45850;BMP180;10739;52.198;20.908;2022-09-24T04:28:09;100379.00;;;9.50
45850;BMP180;10739;52.198;20.908;2022-09-24T04:30:36;100380.00;;;10.10
45850;BMP180;10739;52.198;20.908;2022-09-24T04:33:03;100373.00;;;10.10
45850;BMP180;10739;52.198;20.908;2022-09-24T04:35:31;100374.00;;;10.10
45850;BMP180;10739;52.198;20.908;2022-09-24T04:37:58;100372.00;;;10.30
45850;BMP180;10739;52.198;20.908;2022-09-24T04:40:26;100376.00;;;10.40
45850;BMP180;10739;52.198;20.908;2022-09-24T04:42:52;100381.00;;;10.10
45850;BMP180;10739;52.198;20.908;2022-09-24T04:45:19;100381.00;;;9.70
45850;BMP180;10739;52.198;20.908;2022-09-24T04:47:50;100381.00;;;9.40
45850;BMP180;10739;52.198;20.908;2022-09-24T04:50:19;100380.00;;;9.60
45850;BMP180;10739;52.198;20.908;2022-09-24T04:52:46;100382.00;;;9.70
45850;BMP180;10739;52.198;20.908;2022-09-24T04:55:12;100392.00;;;9.60
45850;BMP180;10739;52.198;20.908;2022-09-24T04:57:39;100391.00;;;9.60
45850;BMP180;10739;52.198;20.908;2022-09-24T05:00:13;100390.00;;;9.60
45850;BMP180;10739;52.198;20.908;2022-09-24T05:02:41;100389.00;;;10.00
45850;BMP180;10739;52.198;20.908;2022-09-24T05:05:08;100381.00;;;10.30
45850;BMP180;10739;52.198;20.908;2022-09-24T05:07:35;100381.00;;;10.40
45850;BMP180;10739;52.198;20.908;2022-09-24T05:10:01;100378.00;;;10.40
45850;BMP180;10739;52.198;20.908;2022-09-24T05:12:27;100369.00;;;10.40
45850;BMP180;10739;52.198;20.908;2022-09-24T05:14:53;100361.00;;;10.50
45850;BMP180;10739;52.198;20.908;2022-09-24T05:17:19;100369.00;;;10.60
45850;BMP180;10739;52.198;20.908;2022-09-24T05:19:46;100373.00;;;10.70
45850;BMP180;10739;52.198;20.908;2022-09-24T05:22:12;100369.00;;;10.80
45850;BMP180;10739;52.198;20.908;2022-09-24T05:24:38;100367.00;;;11.00
45850;BMP180;10739;52.198;20.908;2022-09-24T05:27:04;100358.00;;;10.90
45850;BMP180;10739;52.198;20.908;2022-09-24T05:29:41;100363.00;;;11.00
45850;BMP180;10739;52.198;20.908;2022-09-24T05:32:15;100375.00;;;11.00
45850;BMP180;10739;52.198;20.908;2022-09-24T05:34:43;100373.00;;;11.30
45850;BMP180;10739;52.198;20.908;2022-09-24T05:37:11;100378.00;;;11.50
45850;BMP180;10739;52.198;20.908;2022-09-24T05:39:37;100360.00;;;11.60
45850;BMP180;10739;52.198;20.908;2022-09-24T05:42:04;100376.00;;;11.80
45850;BMP180;10739;52.198;20.908;2022-09-24T05:44:30;100362.00;;;11.80
45850;BMP180;10739;52.198;20.908;2022-09-24T05:46:57;100370.00;;;11.90
45850;BMP180;10739;52.198;20.908;2022-09-24T05:49:24;100369.00;;;11.80
45850;BMP180;10739;52.198;20.908;2022-09-24T05:51:51;100373.00;;;11.80
45850;BMP180;10739;52.198;20.908;2022-09-24T05:54:18;100372.00;;;12.00
45850;BMP180;10739;52.198;20.908;2022-09-24T05:56:44;100367.00;;;12.20
45850;BMP180;10739;52.198;20.908;2022-09-24T05:59:11;100368.00;;;12.30
45850;BMP180;10739;52.198;20.908;2022-09-24T06:01:38;100380.00;;;12.60
45850;BMP180;10739;52.198;20.908;2022-09-24T06:04:04;100377.00;;;12.70
45850;BMP180;10739;52.198;20.908;2022-09-24T06:06:30;100381.00;;;12.70
45850;BMP180;10739;52.198;20.908;2022-09-24T06:08:56;100382.00;;;12.70
45850;BMP180;10739;52.198;20.908;2022-09-24T06:11:23;100381.00;;;12.40
45850;BMP180;10739;52.198;20.908;2022-09-24T06:13:50;100385.00;;;11.80
45850;BMP180;10739;52.198;20.908;2022-09-24T06:16:16;100377.00;;;12.20
45850;BMP180;10739;52.198;20.908;2022-09-24T06:18:43;100384.00;;;12.20
45850;BMP180;10739;52.198;20.908;2022-09-24T06:21:13;100384.00;;;12.30
45850;BMP180;10739;52.198;20.908;2022-09-24T06:23:40;100396.00;;;12.00
45850;BMP180;10739;52.198;20.908;2022-09-24T06:26:10;100389.00;;;12.10
45850;BMP180;10739;52.198;20.908;2022-09-24T06:28:37;100383.00;;;12.00
45850;BMP180;10739;52.198;20.908;2022-09-24T06:31:05;100385.00;;;12.40
45850;BMP180;10739;52.198;20.908;2022-09-24T06:33:32;100379.00;;;12.60
45850;BMP180;10739;52.198;20.908;2022-09-24T06:36:03;100387.00;;;12.60
45850;BMP180;10739;52.198;20.908;2022-09-24T06:38:29;100375.00;;;13.30
45850;BMP180;10739;52.198;20.908;2022-09-24T06:41:01;100380.00;;;13.90
45850;BMP180;10739;52.198;20.908;2022-09-24T06:43:28;100382.00;;;14.70
45850;BMP180;10739;52.198;20.908;2022-09-24T06:45:56;100385.00;;;15.40
45850;BMP180;10739;52.198;20.908;2022-09-24T06:48:23;100376.00;;;15.80
45850;BMP180;10739;52.198;20.908;2022-09-24T06:50:51;100378.00;;;16.00
45850;BMP180;10739;52.198;20.908;2022-09-24T06:53:18;100389.00;;;16.30
45850;BMP180;10739;52.198;20.908;2022-09-24T06:55:45;100389.00;;;16.80
45850;BMP180;10739;52.198;20.908;2022-09-24T06:58:15;100392.00;;;17.00
45850;BMP180;10739;52.198;20.908;2022-09-24T07:00:42;100386.00;;;16.50
45850;BMP180;10739;52.198;20.908;2022-09-24T07:03:14;100388.00;;;16.70
45850;BMP180;10739;52.198;20.908;2022-09-24T07:05:41;100387.00;;;16.80
45850;BMP180;10739;52.198;20.908;2022-09-24T07:08:07;100394.00;;;16.80
45850;BMP180;10739;52.198;20.908;2022-09-24T07:10:34;100393.00;;;16.70
45850;BMP180;10739;52.198;20.908;2022-09-24T07:13:00;100401.00;;;16.20
45850;BMP180;10739;52.198;20.908;2022-09-24T07:15:26;100403.00;;;16.40
45850;BMP180;10739;52.198;20.908;2022-09-24T07:17:56;100409.00;;;16.60
45850;BMP180;10739;52.198;20.908;2022-09-24T07:20:23;100406.00;;;16.80
45850;BMP180;10739;52.198;20.908;2022-09-24T07:22:53;100410.00;;;16.70
45850;BMP180;10739;52.198;20.908;2022-09-24T07:25:21;100410.00;;;16.00
45850;BMP180;10739;52.198;20.908;2022-09-24T07:27:47;100407.00;;;16.00
45850;BMP180;10739;52.198;20.908;2022-09-24T07:30:14;100413.00;;;16.40
45850;BMP180;10739;52.198;20.908;2022-09-24T07:32:40;100406.00;;;16.70
45850;BMP180;10739;52.198;20.908;2022-09-24T07:35:07;100418.00;;;16.90
45850;BMP180;10739;52.198;20.908;2022-09-24T07:37:33;100417.00;;;17.20
45850;BMP180;10739;52.198;20.908;2022-09-24T07:39:59;100411.00;;;17.50
45850;BMP180;10739;52.198;20.908;2022-09-24T07:42:25;100415.00;;;18.00
45850;BMP180;10739;52.198;20.908;2022-09-24T07:44:53;100414.00;;;18.10
45850;BMP180;10739;52.198;20.908;2022-09-24T07:47:21;100413.00;;;18.90
45850;BMP180;10739;52.198;20.908;2022-09-24T07:49:48;100416.00;;;19.10
45850;BMP180;10739;52.198;20.908;2022-09-24T07:52:13;100408.00;;;19.10
45850;BMP180;10739;52.198;20.908;2022-09-24T07:54:40;100411.00;;;19.10
45850;BMP180;10739;52.198;20.908;2022-09-24T07:57:10;100402.00;;;18.90
45850;BMP180;10739;52.198;20.908;2022-09-24T07:59:38;100412.00;;;19.20
45850;BMP180;10739;52.198;20.908;2022-09-24T08:02:13;100411.00;;;19.20
45850;BMP180;10739;52.198;20.908;2022-09-24T08:04:40;100406.00;;;19.70
45850;BMP180;10739;52.198;20.908;2022-09-24T08:07:10;100417.00;;;20.10
45850;BMP180;10739;52.198;20.908;2022-09-24T08:09:36;100410.00;;;21.10
45850;BMP180;10739;52.198;20.908;2022-09-24T08:12:03;100408.00;;;22.00
45850;BMP180;10739;52.198;20.908;2022-09-24T08:14:29;100410.00;;;22.30
45850;BMP180;10739;52.198;20.908;2022-09-24T08:16:56;100416.00;;;22.60
45850;BMP180;10739;52.198;20.908;2022-09-24T08:19:21;100418.00;;;22.30
45850;BMP180;10739;52.198;20.908;2022-09-24T08:21:48;100418.00;;;22.20
45850;BMP180;10739;52.198;20.908;2022-09-24T08:24:15;100410.00;;;22.80
45850;BMP180;10739;52.198;20.908;2022-09-24T08:26:42;100418.00;;;22.70
45850;BMP180;10739;52.198;20.908;2022-09-24T08:29:08;100420.00;;;22.50
45850;BMP180;10739;52.198;20.908;2022-09-24T08:31:35;100408.00;;;22.60
45850;BMP180;10739;52.198;20.908;2022-09-24T08:34:02;100412.00;;;22.90
45850;BMP180;10739;52.198;20.908;2022-09-24T08:36:28;100414.00;;;22.10
45850;BMP180;10739;52.198;20.908;2022-09-24T08:38:55;100420.00;;;22.90
45850;BMP180;10739;52.198;20.908;2022-09-24T08:44:22;100417.00;;;23.50
45850;BMP180;10739;52.198;20.908;2022-09-24T08:47:36;100407.00;;;23.40
45850;BMP180;10739;52.198;20.908;2022-09-24T08:50:16;100420.00;;;23.10
45850;BMP180;10739;52.198;20.908;2022-09-24T08:55:22;100420.00;;;23.70
45850;BMP180;10739;52.198;20.908;2022-09-24T09:01:26;100418.00;;;21.20
45850;BMP180;10739;52.198;20.908;2022-09-24T09:04:16;100404.00;;;20.80
45850;BMP180;10739;52.198;20.908;2022-09-24T09:07:22;100408.00;;;22.00
45850;BMP180;10739;52.198;20.908;2022-09-24T09:10:30;100414.00;;;23.20
45850;BMP180;10739;52.198;20.908;2022-09-24T09:15:59;100402.00;;;25.30
45850;BMP180;10739;52.198;20.908;2022-09-24T09:18:35;100407.00;;;26.00
45850;BMP180;10739;52.198;20.908;2022-09-24T09:21:41;100402.00;;;26.60
45850;BMP180;10739;52.198;20.908;2022-09-24T09:24:26;100401.00;;;27.30
45850;BMP180;10739;52.198;20.908;2022-09-24T09:26:54;100403.00;;;27.70
45850;BMP180;10739;52.198;20.908;2022-09-24T09:29:23;100406.00;;;26.70
45850;BMP180;10739;52.198;20.908;2022-09-24T09:41:26;100397.00;;;24.90
45850;BMP180;10739;52.198;20.908;2022-09-24T09:43:31;100405.00;;;23.30
45850;BMP180;10739;52.198;20.908;2022-09-24T09:48:49;100404.00;;;23.90
45850;BMP180;10739;52.198;20.908;2022-09-24T09:51:24;100401.00;;;24.70
45850;BMP180;10739;52.198;20.908;2022-09-24T09:53:59;100404.00;;;24.40
45850;BMP180;10739;52.198;20.908;2022-09-24T09:56:33;100406.00;;;23.10
45850;BMP180;10739;52.198;20.908;2022-09-24T10:01:39;100400.00;;;24.70
45850;BMP180;10739;52.198;20.908;2022-09-24T10:07:18;100410.00;;;20.60
45850;BMP180;10739;52.198;20.908;2022-09-24T10:09:45;100408.00;;;20.30
45850;BMP180;10739;52.198;20.908;2022-09-24T10:12:21;100402.00;;;22.00
45850;BMP180;10739;52.198;20.908;2022-09-24T10:15:01;100413.00;;;20.40
45850;BMP180;10739;52.198;20.908;2022-09-24T10:17:36;100401.00;;;20.40
45850;BMP180;10739;52.198;20.908;2022-09-24T10:20:32;100401.00;;;19.60
45850;BMP180;10739;52.198;20.908;2022-09-24T10:23:06;100409.00;;;20.00
45850;BMP180;10739;52.198;20.908;2022-09-24T10:25:38;100405.00;;;20.90
45850;BMP180;10739;52.198;20.908;2022-09-24T10:28:17;100404.00;;;20.90
45850;BMP180;10739;52.198;20.908;2022-09-24T10:31:11;100409.00;;;19.90
45850;BMP180;10739;52.198;20.908;2022-09-24T10:33:42;100407.00;;;19.60
45850;BMP180;10739;52.198;20.908;2022-09-24T10:36:22;100398.00;;;19.60
45850;BMP180;10739;52.198;20.908;2022-09-24T10:41:33;100391.00;;;20.10
45850;BMP180;10739;52.198;20.908;2022-09-24T10:44:05;100389.00;;;19.60
45850;BMP180;10739;52.198;20.908;2022-09-24T10:50:06;100387.00;;;19.90
45850;BMP180;10739;52.198;20.908;2022-09-24T10:53:16;100386.00;;;19.30
45850;BMP180;10739;52.198;20.908;2022-09-24T10:56:14;100388.00;;;20.10
45850;BMP180;10739;52.198;20.908;2022-09-24T11:21:33;100377.00;;;19.80
45850;BMP180;10739;52.198;20.908;2022-09-24T11:30:21;100368.00;;;19.00
45850;BMP180;10739;52.198;20.908;2022-09-24T11:44:45;100358.00;;;20.00
45850;BMP180;10739;52.198;20.908;2022-09-24T11:56:40;100361.00;;;19.00
45850;BMP180;10739;52.198;20.908;2022-09-24T11:59:25;100352.00;;;19.50
45850;BMP180;10739;52.198;20.908;2022-09-24T12:02:04;100352.00;;;19.60
45850;BMP180;10739;52.198;20.908;2022-09-24T12:07:59;100349.00;;;18.40
45850;BMP180;10739;52.198;20.908;2022-09-24T12:10:44;100337.00;;;18.70
45850;BMP180;10739;52.198;20.908;2022-09-24T12:13:31;100337.00;;;19.20
45850;BMP180;10739;52.198;20.908;2022-09-24T12:16:14;100336.00;;;19.30
45850;BMP180;10739;52.198;20.908;2022-09-24T12:19:06;100335.00;;;20.00
45850;BMP180;10739;52.198;20.908;2022-09-24T12:21:38;100340.00;;;19.40
45850;BMP180;10739;52.198;20.908;2022-09-24T12:24:33;100342.00;;;19.90
45850;BMP180;10739;52.198;20.908;2022-09-24T12:27:14;100331.00;;;19.40
45850;BMP180;10739;52.198;20.908;2022-09-24T12:36:50;100334.00;;;19.80
45850;BMP180;10739;52.198;20.908;2022-09-24T12:39:22;100326.00;;;20.30
45850;BMP180;10739;52.198;20.908;2022-09-24T12:42:01;100333.00;;;19.00
45850;BMP180;10739;52.198;20.908;2022-09-24T12:44:44;100324.00;;;19.50
45850;BMP180;10739;52.198;20.908;2022-09-24T12:47:26;100322.00;;;18.50
45850;BMP180;10739;52.198;20.908;2022-09-24T12:49:57;100323.00;;;19.30
45850;BMP180;10739;52.198;20.908;2022-09-24T12:52:27;100321.00;;;19.90
45850;BMP180;10739;52.198;20.908;2022-09-24T12:55:01;100332.00;;;19.60
45850;BMP180;10739;52.198;20.908;2022-09-24T12:57:49;100322.00;;;18.60
45850;BMP180;10739;52.198;20.908;2022-09-24T13:00:43;100326.00;;;19.10
45850;BMP180;10739;52.198;20.908;2022-09-24T13:03:40;100330.00;;;19.70
45850;BMP180;10739;52.198;20.908;2022-09-24T13:06:36;100331.00;;;19.80
45850;BMP180;10739;52.198;20.908;2022-09-24T13:09:37;100331.00;;;18.40
45850;BMP180;10739;52.198;20.908;2022-09-24T13:12:18;100338.00;;;18.80
45850;BMP180;10739;52.198;20.908;2022-09-24T13:17:34;100331.00;;;19.40
45850;BMP180;10739;52.198;20.908;2022-09-24T13:20:24;100335.00;;;18.60
45850;BMP180;10739;52.198;20.908;2022-09-24T13:25:39;100324.00;;;19.90
45850;BMP180;10739;52.198;20.908;2022-09-24T13:28:27;100326.00;;;19.00
45850;BMP180;10739;52.198;20.908;2022-09-24T13:34:10;100319.00;;;19.90
45850;BMP180;10739;52.198;20.908;2022-09-24T13:36:47;100307.00;;;20.20
45850;BMP180;10739;52.198;20.908;2022-09-24T13:42:54;100321.00;;;19.80
45850;BMP180;10739;52.198;20.908;2022-09-24T13:45:24;100316.00;;;20.00
45850;BMP180;10739;52.198;20.908;2022-09-24T13:48:00;100315.00;;;19.80
45850;BMP180;10739;52.198;20.908;2022-09-24T13:50:39;100314.00;;;20.40
45850;BMP180;10739;52.198;20.908;2022-09-24T13:53:28;100320.00;;;20.10
45850;BMP180;10739;52.198;20.908;2022-09-24T13:55:59;100306.00;;;20.00
45850;BMP180;10739;52.198;20.908;2022-09-24T13:58:32;100305.00;;;20.70
45850;BMP180;10739;52.198;20.908;2022-09-24T14:01:04;100298.00;;;20.80
45850;BMP180;10739;52.198;20.908;2022-09-24T14:03:34;100303.00;;;21.30
45850;BMP180;10739;52.198;20.908;2022-09-24T14:06:13;100305.00;;;21.70
45850;BMP180;10739;52.198;20.908;2022-09-24T14:08:44;100308.00;;;21.30
45850;BMP180;10739;52.198;20.908;2022-09-24T14:11:21;100303.00;;;20.90
45850;BMP180;10739;52.198;20.908;2022-09-24T14:13:52;100308.00;;;21.10
45850;BMP180;10739;52.198;20.908;2022-09-24T14:16:23;100303.00;;;20.90
45850;BMP180;10739;52.198;20.908;2022-09-24T14:19:14;100299.00;;;20.80
45850;BMP180;10739;52.198;20.908;2022-09-24T14:21:56;100302.00;;;20.40
45850;BMP180;10739;52.198;20.908;2022-09-24T14:25:07;100303.00;;;20.80
45850;BMP180;10739;52.198;20.908;2022-09-24T14:27:43;100294.00;;;20.30
45850;BMP180;10739;52.198;20.908;2022-09-24T14:30:22;100301.00;;;19.70
45850;BMP180;10739;52.198;20.908;2022-09-24T14:33:00;100294.00;;;18.80
45850;BMP180;10739;52.198;20.908;2022-09-24T14:35:32;100292.00;;;19.30
45850;BMP180;10739;52.198;20.908;2022-09-24T14:38:07;100293.00;;;19.90
45850;BMP180;10739;52.198;20.908;2022-09-24T14:40:53;100293.00;;;19.40
45850;BMP180;10739;52.198;20.908;2022-09-24T14:43:27;100297.00;;;19.30
45850;BMP180;10739;52.198;20.908;2022-09-24T14:46:26;100291.00;;;19.60
45850;BMP180;10739;52.198;20.908;2022-09-24T14:49:26;100290.00;;;18.80
45850;BMP180;10739;52.198;20.908;2022-09-24T14:52:00;100289.00;;;18.90
45850;BMP180;10739;52.198;20.908;2022-09-24T14:54:34;100289.00;;;19.30
45850;BMP180;10739;52.198;20.908;2022-09-24T14:59:44;100282.00;;;19.30
45850;BMP180;10739;52.198;20.908;2022-09-24T15:02:32;100291.00;;;18.70
45850;BMP180;10739;52.198;20.908;2022-09-24T15:05:06;100289.00;;;19.30
45850;BMP180;10739;52.198;20.908;2022-09-24T15:07:34;100285.00;;;19.70
45850;BMP180;10739;52.198;20.908;2022-09-24T15:10:04;100281.00;;;19.10
45850;BMP180;10739;52.198;20.908;2022-09-24T15:12:36;100280.00;;;18.70
45850;BMP180;10739;52.198;20.908;2022-09-24T15:17:42;100287.00;;;18.30
45850;BMP180;10739;52.198;20.908;2022-09-24T15:20:11;100282.00;;;18.50
45850;BMP180;10739;52.198;20.908;2022-09-24T15:22:37;100282.00;;;19.10
45850;BMP180;10739;52.198;20.908;2022-09-24T15:25:05;100295.00;;;18.30
45850;BMP180;10739;52.198;20.908;2022-09-24T15:27:36;100288.00;;;18.70
45850;BMP180;10739;52.198;20.908;2022-09-24T15:30:05;100284.00;;;18.20
45850;BMP180;10739;52.198;20.908;2022-09-24T15:32:33;100285.00;;;18.30
45850;BMP180;10739;52.198;20.908;2022-09-24T15:35:01;100283.00;;;17.90
45850;BMP180;10739;52.198;20.908;2022-09-24T15:37:32;100281.00;;;18.00
45850;BMP180;10739;52.198;20.908;2022-09-24T15:40:11;100277.00;;;18.40
45850;BMP180;10739;52.198;20.908;2022-09-24T15:42:40;100285.00;;;18.00
45850;BMP180;10739;52.198;20.908;2022-09-24T15:45:19;100278.00;;;17.60
45850;BMP180;10739;52.198;20.908;2022-09-24T15:47:51;100270.00;;;17.80
45850;BMP180;10739;52.198;20.908;2022-09-24T15:50:19;100277.00;;;18.20
45850;BMP180;10739;52.198;20.908;2022-09-24T15:55:20;100277.00;;;18.60
45850;BMP180;10739;52.198;20.908;2022-09-24T15:57:47;100279.00;;;18.50
45850;BMP180;10739;52.198;20.908;2022-09-24T16:00:20;100290.00;;;18.60
45850;BMP180;10739;52.198;20.908;2022-09-24T16:02:53;100282.00;;;18.30
45850;BMP180;10739;52.198;20.908;2022-09-24T16:05:20;100279.00;;;18.40
45850;BMP180;10739;52.198;20.908;2022-09-24T16:07:46;100281.00;;;18.40
45850;BMP180;10739;52.198;20.908;2022-09-24T16:10:14;100278.00;;;18.30
45850;BMP180;10739;52.198;20.908;2022-09-24T16:12:42;100287.00;;;18.20
45850;BMP180;10739;52.198;20.908;2022-09-24T16:15:13;100288.00;;;18.00
45850;BMP180;10739;52.198;20.908;2022-09-24T16:17:40;100284.00;;;18.00
45850;BMP180;10739;52.198;20.908;2022-09-24T16:20:07;100286.00;;;17.90
45850;BMP180;10739;52.198;20.908;2022-09-24T16:22:34;100285.00;;;17.80